sensor_id;sensor_type;location;lat;lon;timestamp;P1;durP1;ratioP1;P2;durP2;ratioP2
27796;SDS011;15177;50.844;4.412;2023-11-19T00:02:21;16.23;;;6.63;;
27796;SDS011;15177;50.844;4.412;2023-11-19T00:04:49;16.20;;;6.73;;
27796;SDS011;15177;50.844;4.412;2023-11-19T00:07:15;11.07;;;5.90;;
27796;SDS011;15177;50.844;4.412;2023-11-19T00:09:45;17.27;;;6.00;;
27796;SDS011;15177;50.844;4.412;2023-11-19T00:12:11;17.63;;;5.80;;
27796;SDS011;15177;50.844;4.412;2023-11-19T00:14:38;16.27;;;6.15;;
27796;SDS011;15177;50.844;4.412;2023-11-19T00:17:03;17.30;;;6.40;;
27796;SDS011;15177;50.844;4.412;2023-11-19T00:19:29;17.97;;;5.67;;
27796;SDS011;15177;50.844;4.412;2023-11-19T00:21:57;24.05;;;6.05;;
27796;SDS011;15177;50.844;4.412;2023-11-19T00:24:27;18.80;;;5.33;;
27796;SDS011;15177;50.844;4.412;2023-11-19T00:26:53;15.10;;;4.90;;
27796;SDS011;15177;50.844;4.412;2023-11-19T00:29:18;21.27;;;5.23;;
27796;SDS011;15177;50.844;4.412;2023-11-19T00:31:45;21.07;;;6.90;;
27796;SDS011;15177;50.844;4.412;2023-11-19T00:34:10;18.48;;;5.47;;
27796;SDS011;15177;50.844;4.412;2023-11-19T00:36:39;24.37;;;5.90;;
27796;SDS011;15177;50.844;4.412;2023-11-19T00:39:07;20.60;;;5.10;;
27796;SDS011;15177;50.844;4.412;2023-11-19T00:41:35;21.88;;;4.95;;
27796;SDS011;15177;50.844;4.412;2023-11-19T00:44:02;22.73;;;5.80;;
27796;SDS011;15177;50.844;4.412;2023-11-19T00:46:33;26.03;;;4.83;;
27796;SDS011;15177;50.844;4.412;2023-11-19T00:48:59;22.30;;;5.13;;
27796;SDS011;15177;50.844;4.412;2023-11-19T00:51:26;26.40;;;5.10;;
27796;SDS011;15177;50.844;4.412;2023-11-19T00:53:51;18.10;;;5.25;;
27796;SDS011;15177;50.844;4.412;2023-11-19T00:56:20;15.50;;;4.67;;
27796;SDS011;15177;50.844;4.412;2023-11-19T00:58:46;32.57;;;5.03;;
27796;SDS011;15177;50.844;4.412;2023-11-19T01:01:12;23.10;;;4.23;;
27796;SDS011;15177;50.844;4.412;2023-11-19T01:03:40;19.08;;;5.80;;
27796;SDS011;15177;50.844;4.412;2023-11-19T01:06:08;23.13;;;4.53;;
27796;SDS011;15177;50.844;4.412;2023-11-19T01:08:33;24.30;;;4.77;;
27796;SDS011;15177;50.844;4.412;2023-11-19T01:11:01;26.38;;;5.43;;
27796;SDS011;15177;50.844;4.412;2023-11-19T01:13:29;18.75;;;4.70;;
27796;SDS011;15177;50.844;4.412;2023-11-19T01:15:55;16.58;;;4.28;;
27796;SDS011;15177;50.844;4.412;2023-11-19T01:18:21;16.10;;;4.70;;
27796;SDS011;15177;50.844;4.412;2023-11-19T01:20:47;21.17;;;4.30;;
27796;SDS011;15177;50.844;4.412;2023-11-19T01:23:15;20.05;;;4.57;;
27796;SDS011;15177;50.844;4.412;2023-11-19T01:25:42;18.77;;;3.65;;
27796;SDS011;15177;50.844;4.412;2023-11-19T01:28:08;18.92;;;4.18;;
27796;SDS011;15177;50.844;4.412;2023-11-19T01:30:34;22.48;;;5.25;;
27796;SDS011;15177;50.844;4.412;2023-11-19T01:32:59;26.50;;;4.30;;
27796;SDS011;15177;50.844;4.412;2023-11-19T01:35:27;25.10;;;4.30;;
27796;SDS011;15177;50.844;4.412;2023-11-19T01:37:55;26.77;;;4.38;;
27796;SDS011;15177;50.844;4.412;2023-11-19T01:40:21;23.45;;;4.47;;
27796;SDS011;15177;50.844;4.412;2023-11-19T01:42:47;23.73;;;5.00;;
27796;SDS011;15177;50.844;4.412;2023-11-19T01:45:21;27.47;;;4.60;;
27796;SDS011;15177;50.844;4.412;2023-11-19T01:47:52;29.00;;;4.57;;
27796;SDS011;15177;50.844;4.412;2023-11-19T01:50:18;24.13;;;4.37;;
27796;SDS011;15177;50.844;4.412;2023-11-19T01:52:47;24.75;;;5.45;;
27796;SDS011;15177;50.844;4.412;2023-11-19T01:55:13;28.70;;;4.17;;
27796;SDS011;15177;50.844;4.412;2023-11-19T01:57:39;28.20;;;4.53;;
27796;SDS011;15177;50.844;4.412;2023-11-19T02:00:07;34.00;;;4.93;;
27796;SDS011;15177;50.844;4.412;2023-11-19T02:02:38;27.38;;;4.38;;
27796;SDS011;15177;50.844;4.412;2023-11-19T02:05:05;30.57;;;4.80;;
27796;SDS011;15177;50.844;4.412;2023-11-19T02:07:31;33.75;;;5.75;;
27796;SDS011;15177;50.844;4.412;2023-11-19T02:09:59;26.08;;;4.45;;
27796;SDS011;15177;50.844;4.412;2023-11-19T02:12:30;29.53;;;4.83;;
27796;SDS011;15177;50.844;4.412;2023-11-19T02:15:01;26.40;;;5.18;;
27796;SDS011;15177;50.844;4.412;2023-11-19T02:17:29;27.97;;;4.50;;
27796;SDS011;15177;50.844;4.412;2023-11-19T02:19:59;28.08;;;5.03;;
27796;SDS011;15177;50.844;4.412;2023-11-19T02:22:25;27.17;;;4.23;;
27796;SDS011;15177;50.844;4.412;2023-11-19T02:24:51;33.45;;;5.22;;
27796;SDS011;15177;50.844;4.412;2023-11-19T02:30:03;18.63;;;4.67;;
27796;SDS011;15177;50.844;4.412;2023-11-19T02:32:33;32.20;;;4.55;;
27796;SDS011;15177;50.844;4.412;2023-11-19T02:34:59;31.00;;;5.03;;
27796;SDS011;15177;50.844;4.412;2023-11-19T02:37:25;27.70;;;5.20;;
27796;SDS011;15177;50.844;4.412;2023-11-19T02:39:53;28.30;;;4.97;;
27796;SDS011;15177;50.844;4.412;2023-11-19T02:42:19;26.85;;;5.20;;
27796;SDS011;15177;50.844;4.412;2023-11-19T02:44:44;31.13;;;4.33;;
27796;SDS011;15177;50.844;4.412;2023-11-19T02:47:11;16.33;;;4.40;;
27796;SDS011;15177;50.844;4.412;2023-11-19T02:49:39;27.33;;;3.92;;
27796;SDS011;15177;50.844;4.412;2023-11-19T02:52:04;26.17;;;4.80;;
27796;SDS011;15177;50.844;4.412;2023-11-19T02:54:31;24.40;;;5.17;;
27796;SDS011;15177;50.844;4.412;2023-11-19T02:57:00;26.17;;;4.43;;
27796;SDS011;15177;50.844;4.412;2023-11-19T02:59:30;29.90;;;5.77;;
27796;SDS011;15177;50.844;4.412;2023-11-19T03:02:04;26.20;;;4.53;;
27796;SDS011;15177;50.844;4.412;2023-11-19T03:04:32;31.43;;;5.47;;
27796;SDS011;15177;50.844;4.412;2023-11-19T03:06:58;25.77;;;3.90;;
27796;SDS011;15177;50.844;4.412;2023-11-19T03:09:24;29.17;;;4.63;;
27796;SDS011;15177;50.844;4.412;2023-11-19T03:11:50;29.73;;;4.63;;
27796;SDS011;15177;50.844;4.412;2023-11-19T03:14:17;19.83;;;4.87;;
27796;SDS011;15177;50.844;4.412;2023-11-19T03:16:45;35.50;;;6.47;;
27796;SDS011;15177;50.844;4.412;2023-11-19T03:19:11;25.97;;;4.73;;
27796;SDS011;15177;50.844;4.412;2023-11-19T03:21:37;28.67;;;5.57;;
27796;SDS011;15177;50.844;4.412;2023-11-19T03:24:03;29.87;;;5.20;;
27796;SDS011;15177;50.844;4.412;2023-11-19T03:26:28;32.17;;;5.10;;
27796;SDS011;15177;50.844;4.412;2023-11-19T03:28:57;27.73;;;4.23;;
27796;SDS011;15177;50.844;4.412;2023-11-19T03:31:22;35.87;;;5.00;;
27796;SDS011;15177;50.844;4.412;2023-11-19T03:33:48;28.03;;;6.00;;
27796;SDS011;15177;50.844;4.412;2023-11-19T03:36:13;29.43;;;5.53;;
27796;SDS011;15177;50.844;4.412;2023-11-19T03:38:42;32.20;;;4.80;;
27796;SDS011;15177;50.844;4.412;2023-11-19T03:41:11;25.37;;;4.80;;
27796;SDS011;15177;50.844;4.412;2023-11-19T03:43:40;26.27;;;4.27;;
27796;SDS011;15177;50.844;4.412;2023-11-19T03:46:16;41.07;;;6.07;;
27796;SDS011;15177;50.844;4.412;2023-11-19T03:48:43;34.10;;;5.17;;
27796;SDS011;15177;50.844;4.412;2023-11-19T03:51:08;30.77;;;5.77;;
27796;SDS011;15177;50.844;4.412;2023-11-19T03:53:40;35.83;;;6.57;;
27796;SDS011;15177;50.844;4.412;2023-11-19T03:56:08;35.00;;;5.20;;
27796;SDS011;15177;50.844;4.412;2023-11-19T03:58:37;27.97;;;5.43;;
27796;SDS011;15177;50.844;4.412;2023-11-19T04:01:13;29.77;;;5.43;;
27796;SDS011;15177;50.844;4.412;2023-11-19T04:03:39;28.27;;;4.90;;
27796;SDS011;15177;50.844;4.412;2023-11-19T04:06:04;30.10;;;5.63;;
27796;SDS011;15177;50.844;4.412;2023-11-19T04:08:30;34.90;;;5.60;;
27796;SDS011;15177;50.844;4.412;2023-11-19T04:11:00;37.20;;;5.43;;
27796;SDS011;15177;50.844;4.412;2023-11-19T04:13:27;29.23;;;5.00;;
27796;SDS011;15177;50.844;4.412;2023-11-19T04:15:53;27.17;;;4.90;;
27796;SDS011;15177;50.844;4.412;2023-11-19T04:18:21;30.70;;;5.50;;
27796;SDS011;15177;50.844;4.412;2023-11-19T04:20:49;28.10;;;5.37;;
27796;SDS011;15177;50.844;4.412;2023-11-19T04:23:15;28.17;;;4.97;;
27796;SDS011;15177;50.844;4.412;2023-11-19T04:25:41;28.43;;;5.43;;
27796;SDS011;15177;50.844;4.412;2023-11-19T04:28:07;37.07;;;6.43;;
27796;SDS011;15177;50.844;4.412;2023-11-19T04:30:33;29.90;;;4.60;;
27796;SDS011;15177;50.844;4.412;2023-11-19T04:33:00;22.77;;;5.63;;
27796;SDS011;15177;50.844;4.412;2023-11-19T04:35:26;41.17;;;5.97;;
27796;SDS011;15177;50.844;4.412;2023-11-19T04:37:51;41.37;;;5.40;;
27796;SDS011;15177;50.844;4.412;2023-11-19T04:40:17;30.07;;;5.00;;
27796;SDS011;15177;50.844;4.412;2023-11-19T04:42:43;39.53;;;6.93;;
27796;SDS011;15177;50.844;4.412;2023-11-19T04:45:11;33.53;;;5.73;;
27796;SDS011;15177;50.844;4.412;2023-11-19T04:47:37;39.20;;;6.37;;
27796;SDS011;15177;50.844;4.412;2023-11-19T04:50:03;37.53;;;6.40;;
27796;SDS011;15177;50.844;4.412;2023-11-19T04:52:29;45.07;;;7.50;;
27796;SDS011;15177;50.844;4.412;2023-11-19T04:54:54;41.27;;;7.07;;
27796;SDS011;15177;50.844;4.412;2023-11-19T04:57:20;35.10;;;6.90;;
27796;SDS011;15177;50.844;4.412;2023-11-19T04:59:46;45.87;;;6.50;;
27796;SDS011;15177;50.844;4.412;2023-11-19T05:02:11;43.37;;;7.63;;
27796;SDS011;15177;50.844;4.412;2023-11-19T05:04:37;39.43;;;7.20;;
27796;SDS011;15177;50.844;4.412;2023-11-19T05:07:08;42.00;;;6.00;;
27796;SDS011;15177;50.844;4.412;2023-11-19T05:09:34;35.77;;;5.90;;
27796;SDS011;15177;50.844;4.412;2023-11-19T05:12:00;33.37;;;6.43;;
27796;SDS011;15177;50.844;4.412;2023-11-19T05:14:27;35.53;;;5.63;;
27796;SDS011;15177;50.844;4.412;2023-11-19T05:16:53;52.70;;;8.57;;
27796;SDS011;15177;50.844;4.412;2023-11-19T05:19:20;41.97;;;5.80;;
27796;SDS011;15177;50.844;4.412;2023-11-19T05:21:46;34.70;;;6.03;;
27796;SDS011;15177;50.844;4.412;2023-11-19T05:24:17;29.07;;;5.80;;
27796;SDS011;15177;50.844;4.412;2023-11-19T05:26:43;41.83;;;6.53;;
27796;SDS011;15177;50.844;4.412;2023-11-19T05:29:08;42.83;;;8.40;;
27796;SDS011;15177;50.844;4.412;2023-11-19T05:31:36;44.23;;;6.37;;
27796;SDS011;15177;50.844;4.412;2023-11-19T05:34:09;37.30;;;5.63;;
27796;SDS011;15177;50.844;4.412;2023-11-19T05:36:37;43.00;;;7.43;;
27796;SDS011;15177;50.844;4.412;2023-11-19T05:39:02;33.17;;;5.87;;
27796;SDS011;15177;50.844;4.412;2023-11-19T05:41:30;47.70;;;6.10;;
27796;SDS011;15177;50.844;4.412;2023-11-19T05:43:56;42.17;;;6.37;;
27796;SDS011;15177;50.844;4.412;2023-11-19T05:46:24;41.37;;;6.40;;
27796;SDS011;15177;50.844;4.412;2023-11-19T05:48:52;42.90;;;7.43;;
27796;SDS011;15177;50.844;4.412;2023-11-19T05:51:17;39.33;;;7.03;;
27796;SDS011;15177;50.844;4.412;2023-11-19T05:53:43;49.77;;;7.13;;
27796;SDS011;15177;50.844;4.412;2023-11-19T05:56:10;42.97;;;7.47;;
27796;SDS011;15177;50.844;4.412;2023-11-19T05:58:36;45.07;;;7.17;;
27796;SDS011;15177;50.844;4.412;2023-11-19T06:01:02;44.33;;;7.80;;
27796;SDS011;15177;50.844;4.412;2023-11-19T06:03:29;45.00;;;8.80;;
27796;SDS011;15177;50.844;4.412;2023-11-19T06:05:55;37.77;;;7.30;;
27796;SDS011;15177;50.844;4.412;2023-11-19T06:08:23;38.47;;;6.13;;
27796;SDS011;15177;50.844;4.412;2023-11-19T06:10:51;45.47;;;8.37;;
27796;SDS011;15177;50.844;4.412;2023-11-19T06:13:16;45.43;;;7.23;;
27796;SDS011;15177;50.844;4.412;2023-11-19T06:15:47;46.97;;;7.03;;
27796;SDS011;15177;50.844;4.412;2023-11-19T06:18:12;43.07;;;7.53;;
27796;SDS011;15177;50.844;4.412;2023-11-19T06:20:40;48.87;;;7.20;;
27796;SDS011;15177;50.844;4.412;2023-11-19T06:23:06;42.43;;;7.00;;
27796;SDS011;15177;50.844;4.412;2023-11-19T06:25:34;36.83;;;6.23;;
27796;SDS011;15177;50.844;4.412;2023-11-19T06:28:00;48.10;;;7.87;;
27796;SDS011;15177;50.844;4.412;2023-11-19T06:30:26;56.73;;;8.37;;
27796;SDS011;15177;50.844;4.412;2023-11-19T06:32:53;47.73;;;7.00;;
27796;SDS011;15177;50.844;4.412;2023-11-19T06:35:19;46.20;;;6.47;;
27796;SDS011;15177;50.844;4.412;2023-11-19T06:37:45;39.30;;;6.70;;
27796;SDS011;15177;50.844;4.412;2023-11-19T06:40:10;45.03;;;9.00;;
27796;SDS011;15177;50.844;4.412;2023-11-19T06:42:37;43.23;;;6.90;;
27796;SDS011;15177;50.844;4.412;2023-11-19T06:45:03;36.40;;;6.00;;
27796;SDS011;15177;50.844;4.412;2023-11-19T06:47:32;39.27;;;6.67;;
27796;SDS011;15177;50.844;4.412;2023-11-19T06:50:00;44.57;;;7.00;;
27796;SDS011;15177;50.844;4.412;2023-11-19T06:52:30;35.00;;;5.47;;
27796;SDS011;15177;50.844;4.412;2023-11-19T06:54:56;43.80;;;6.67;;
27796;SDS011;15177;50.844;4.412;2023-11-19T06:57:22;41.80;;;6.97;;
27796;SDS011;15177;50.844;4.412;2023-11-19T06:59:48;40.97;;;6.03;;
27796;SDS011;15177;50.844;4.412;2023-11-19T07:02:14;39.17;;;6.43;;
27796;SDS011;15177;50.844;4.412;2023-11-19T07:04:40;37.50;;;6.57;;
27796;SDS011;15177;50.844;4.412;2023-11-19T07:07:05;57.93;;;7.73;;
27796;SDS011;15177;50.844;4.412;2023-11-19T07:09:31;51.10;;;6.50;;
27796;SDS011;15177;50.844;4.412;2023-11-19T07:11:57;44.87;;;6.87;;
27796;SDS011;15177;50.844;4.412;2023-11-19T07:14:24;51.23;;;5.70;;
27796;SDS011;15177;50.844;4.412;2023-11-19T07:16:53;42.83;;;5.00;;
27796;SDS011;15177;50.844;4.412;2023-11-19T07:19:21;38.17;;;6.90;;
27796;SDS011;15177;50.844;4.412;2023-11-19T07:21:47;39.53;;;6.77;;
27796;SDS011;15177;50.844;4.412;2023-11-19T07:24:14;43.20;;;7.03;;
27796;SDS011;15177;50.844;4.412;2023-11-19T07:26:45;38.80;;;5.73;;
27796;SDS011;15177;50.844;4.412;2023-11-19T07:29:14;36.40;;;7.60;;
27796;SDS011;15177;50.844;4.412;2023-11-19T07:31:46;41.87;;;6.50;;
27796;SDS011;15177;50.844;4.412;2023-11-19T07:34:14;28.17;;;5.23;;
27796;SDS011;15177;50.844;4.412;2023-11-19T07:36:42;46.63;;;6.60;;
27796;SDS011;15177;50.844;4.412;2023-11-19T07:39:08;39.00;;;6.97;;
27796;SDS011;15177;50.844;4.412;2023-11-19T07:41:33;35.20;;;6.60;;
27796;SDS011;15177;50.844;4.412;2023-11-19T07:43:59;37.93;;;6.13;;
27796;SDS011;15177;50.844;4.412;2023-11-19T07:46:28;49.17;;;8.33;;
27796;SDS011;15177;50.844;4.412;2023-11-19T07:48:53;48.73;;;6.97;;
27796;SDS011;15177;50.844;4.412;2023-11-19T07:51:21;37.20;;;5.47;;
27796;SDS011;15177;50.844;4.412;2023-11-19T07:53:47;32.33;;;6.70;;
27796;SDS011;15177;50.844;4.412;2023-11-19T07:56:15;35.20;;;6.67;;
27796;SDS011;15177;50.844;4.412;2023-11-19T07:58:41;44.33;;;6.70;;
27796;SDS011;15177;50.844;4.412;2023-11-19T08:01:11;44.80;;;7.07;;
27796;SDS011;15177;50.844;4.412;2023-11-19T08:03:37;46.93;;;6.93;;
27796;SDS011;15177;50.844;4.412;2023-11-19T08:06:03;26.03;;;6.20;;
27796;SDS011;15177;50.844;4.412;2023-11-19T08:08:32;39.10;;;6.07;;
27796;SDS011;15177;50.844;4.412;2023-11-19T08:10:58;30.00;;;5.73;;
27796;SDS011;15177;50.844;4.412;2023-11-19T08:13:24;49.67;;;7.03;;
27796;SDS011;15177;50.844;4.412;2023-11-19T08:15:50;39.43;;;6.43;;
27796;SDS011;15177;50.844;4.412;2023-11-19T08:18:18;31.27;;;5.97;;
27796;SDS011;15177;50.844;4.412;2023-11-19T08:20:46;36.83;;;6.20;;
27796;SDS011;15177;50.844;4.412;2023-11-19T08:23:17;36.53;;;7.43;;
27796;SDS011;15177;50.844;4.412;2023-11-19T08:25:43;36.43;;;5.43;;
27796;SDS011;15177;50.844;4.412;2023-11-19T08:28:09;42.27;;;6.80;;
27796;SDS011;15177;50.844;4.412;2023-11-19T08:30:35;27.03;;;5.80;;
27796;SDS011;15177;50.844;4.412;2023-11-19T08:33:00;45.63;;;6.67;;
27796;SDS011;15177;50.844;4.412;2023-11-19T08:35:28;38.57;;;6.30;;
27796;SDS011;15177;50.844;4.412;2023-11-19T08:37:54;40.97;;;6.07;;
27796;SDS011;15177;50.844;4.412;2023-11-19T08:40:19;31.70;;;4.90;;
27796;SDS011;15177;50.844;4.412;2023-11-19T08:42:45;36.97;;;5.70;;
27796;SDS011;15177;50.844;4.412;2023-11-19T08:45:11;31.93;;;5.27;;
27796;SDS011;15177;50.844;4.412;2023-11-19T08:47:39;39.10;;;5.67;;
27796;SDS011;15177;50.844;4.412;2023-11-19T08:50:05;47.37;;;7.30;;
27796;SDS011;15177;50.844;4.412;2023-11-19T08:52:34;29.37;;;5.43;;
27796;SDS011;15177;50.844;4.412;2023-11-19T08:55:00;27.67;;;5.43;;
27796;SDS011;15177;50.844;4.412;2023-11-19T08:57:25;38.43;;;6.53;;
27796;SDS011;15177;50.844;4.412;2023-11-19T08:59:51;42.83;;;6.90;;
27796;SDS011;15177;50.844;4.412;2023-11-19T09:02:19;32.70;;;6.13;;
27796;SDS011;15177;50.844;4.412;2023-11-19T09:04:44;35.43;;;5.80;;
27796;SDS011;15177;50.844;4.412;2023-11-19T09:07:10;28.00;;;5.17;;
27796;SDS011;15177;50.844;4.412;2023-11-19T09:09:35;41.27;;;7.70;;
27796;SDS011;15177;50.844;4.412;2023-11-19T09:12:01;32.93;;;5.53;;
27796;SDS011;15177;50.844;4.412;2023-11-19T09:14:30;40.37;;;6.33;;
27796;SDS011;15177;50.844;4.412;2023-11-19T09:16:56;31.77;;;5.57;;
27796;SDS011;15177;50.844;4.412;2023-11-19T09:19:22;40.43;;;5.17;;
27796;SDS011;15177;50.844;4.412;2023-11-19T09:21:47;29.07;;;4.30;;
27796;SDS011;15177;50.844;4.412;2023-11-19T09:24:14;31.67;;;5.27;;
27796;SDS011;15177;50.844;4.412;2023-11-19T09:26:40;29.07;;;4.53;;
27796;SDS011;15177;50.844;4.412;2023-11-19T09:29:11;26.60;;;6.23;;
27796;SDS011;15177;50.844;4.412;2023-11-19T09:31:42;23.53;;;4.27;;
27796;SDS011;15177;50.844;4.412;2023-11-19T09:34:07;30.10;;;5.57;;
27796;SDS011;15177;50.844;4.412;2023-11-19T09:36:33;32.20;;;5.10;;
27796;SDS011;15177;50.844;4.412;2023-11-19T09:38:58;29.87;;;6.20;;
27796;SDS011;15177;50.844;4.412;2023-11-19T09:41:27;29.43;;;5.47;;
27796;SDS011;15177;50.844;4.412;2023-11-19T09:43:54;27.50;;;5.47;;
27796;SDS011;15177;50.844;4.412;2023-11-19T09:46:20;27.03;;;5.17;;
27796;SDS011;15177;50.844;4.412;2023-11-19T09:48:49;26.97;;;5.37;;
27796;SDS011;15177;50.844;4.412;2023-11-19T09:51:21;26.38;;;4.72;;
27796;SDS011;15177;50.844;4.412;2023-11-19T09:53:49;28.53;;;4.93;;
27796;SDS011;15177;50.844;4.412;2023-11-19T09:56:18;36.05;;;6.20;;
27796;SDS011;15177;50.844;4.412;2023-11-19T09:58:49;27.60;;;4.85;;
27796;SDS011;15177;50.844;4.412;2023-11-19T10:01:17;27.80;;;4.80;;
27796;SDS011;15177;50.844;4.412;2023-11-19T10:03:45;21.95;;;4.85;;
27796;SDS011;15177;50.844;4.412;2023-11-19T10:06:20;28.08;;;4.68;;
27796;SDS011;15177;50.844;4.412;2023-11-19T10:08:48;20.90;;;4.40;;
27796;SDS011;15177;50.844;4.412;2023-11-19T10:11:14;19.65;;;4.35;;
27796;SDS011;15177;50.844;4.412;2023-11-19T10:13:42;23.77;;;4.25;;
27796;SDS011;15177;50.844;4.412;2023-11-19T10:16:08;33.65;;;5.00;;
27796;SDS011;15177;50.844;4.412;2023-11-19T10:18:37;26.52;;;5.60;;
27796;SDS011;15177;50.844;4.412;2023-11-19T10:21:15;40.42;;;6.63;;
27796;SDS011;15177;50.844;4.412;2023-11-19T10:23:50;20.08;;;4.43;;
27796;SDS011;15177;50.844;4.412;2023-11-19T10:26:17;32.42;;;5.97;;
27796;SDS011;15177;50.844;4.412;2023-11-19T10:28:43;33.85;;;5.90;;
27796;SDS011;15177;50.844;4.412;2023-11-19T10:31:12;30.58;;;5.30;;
27796;SDS011;15177;50.844;4.412;2023-11-19T10:33:41;24.33;;;4.88;;
27796;SDS011;15177;50.844;4.412;2023-11-19T10:36:10;28.90;;;5.18;;
27796;SDS011;15177;50.844;4.412;2023-11-19T10:38:40;26.25;;;4.38;;
27796;SDS011;15177;50.844;4.412;2023-11-19T10:41:06;26.17;;;4.78;;
27796;SDS011;15177;50.844;4.412;2023-11-19T10:43:43;26.95;;;4.53;;
27796;SDS011;15177;50.844;4.412;2023-11-19T10:46:14;26.23;;;3.92;;
27796;SDS011;15177;50.844;4.412;2023-11-19T10:48:46;24.83;;;4.60;;
27796;SDS011;15177;50.844;4.412;2023-11-19T10:51:11;27.02;;;4.20;;
27796;SDS011;15177;50.844;4.412;2023-11-19T10:53:49;23.13;;;4.25;;
27796;SDS011;15177;50.844;4.412;2023-11-19T10:56:17;34.15;;;5.47;;
27796;SDS011;15177;50.844;4.412;2023-11-19T10:58:47;22.70;;;4.22;;
27796;SDS011;15177;50.844;4.412;2023-11-19T11:01:19;29.65;;;5.63;;
27796;SDS011;15177;50.844;4.412;2023-11-19T11:03:50;25.10;;;4.40;;
27796;SDS011;15177;50.844;4.412;2023-11-19T11:06:19;31.55;;;5.28;;
27796;SDS011;15177;50.844;4.412;2023-11-19T11:08:52;28.38;;;5.10;;
27796;SDS011;15177;50.844;4.412;2023-11-19T11:11:19;25.10;;;5.03;;
27796;SDS011;15177;50.844;4.412;2023-11-19T11:13:46;27.03;;;4.60;;
27796;SDS011;15177;50.844;4.412;2023-11-19T11:16:14;22.30;;;4.23;;
27796;SDS011;15177;50.844;4.412;2023-11-19T11:18:43;34.85;;;6.47;;
27796;SDS011;15177;50.844;4.412;2023-11-19T11:21:14;27.33;;;5.35;;
27796;SDS011;15177;50.844;4.412;2023-11-19T11:29:03;26.30;;;5.43;;
27796;SDS011;15177;50.844;4.412;2023-11-19T11:31:45;27.60;;;5.03;;
27796;SDS011;15177;50.844;4.412;2023-11-19T11:39:51;25.97;;;5.10;;
27796;SDS011;15177;50.844;4.412;2023-11-19T11:50:20;39.37;;;6.83;;
27796;SDS011;15177;50.844;4.412;2023-11-19T11:57:49;22.73;;;5.77;;
27796;SDS011;15177;50.844;4.412;2023-11-19T12:01:00;32.73;;;7.70;;
27796;SDS011;15177;50.844;4.412;2023-11-19T12:03:07;35.30;;;5.65;;
27796;SDS011;15177;50.844;4.412;2023-11-19T12:05:34;30.23;;;4.83;;
27796;SDS011;15177;50.844;4.412;2023-11-19T12:08:10;33.28;;;5.55;;
27796;SDS011;15177;50.844;4.412;2023-11-19T12:10:50;30.43;;;5.40;;
27796;SDS011;15177;50.844;4.412;2023-11-19T12:13:19;24.55;;;4.35;;
27796;SDS011;15177;50.844;4.412;2023-11-19T12:18:26;20.50;;;4.93;;
27796;SDS011;15177;50.844;4.412;2023-11-19T12:20:55;19.17;;;3.50;;
27796;SDS011;15177;50.844;4.412;2023-11-19T12:23:28;19.92;;;3.65;;
27796;SDS011;15177;50.844;4.412;2023-11-19T12:25:54;19.15;;;4.03;;
27796;SDS011;15177;50.844;4.412;2023-11-19T12:28:23;23.10;;;4.57;;
27796;SDS011;15177;50.844;4.412;2023-11-19T12:30:52;25.70;;;4.00;;
27796;SDS011;15177;50.844;4.412;2023-11-19T12:33:18;35.07;;;5.53;;
27796;SDS011;15177;50.844;4.412;2023-11-19T12:35:47;33.13;;;5.73;;
27796;SDS011;15177;50.844;4.412;2023-11-19T12:38:23;22.70;;;4.40;;
27796;SDS011;15177;50.844;4.412;2023-11-19T12:41:02;26.93;;;4.87;;
27796;SDS011;15177;50.844;4.412;2023-11-19T12:43:29;22.60;;;4.60;;
27796;SDS011;15177;50.844;4.412;2023-11-19T12:45:55;41.87;;;6.63;;
27796;SDS011;15177;50.844;4.412;2023-11-19T12:48:20;28.67;;;5.40;;
27796;SDS011;15177;50.844;4.412;2023-11-19T12:50:53;27.00;;;5.55;;
27796;SDS011;15177;50.844;4.412;2023-11-19T12:53:23;28.70;;;6.55;;
27796;SDS011;15177;50.844;4.412;2023-11-19T12:55:52;29.65;;;5.65;;
27796;SDS011;15177;50.844;4.412;2023-11-19T13:01:06;38.20;;;6.47;;
27796;SDS011;15177;50.844;4.412;2023-11-19T13:03:33;35.30;;;5.63;;
27796;SDS011;15177;50.844;4.412;2023-11-19T13:06:07;30.60;;;7.13;;
27796;SDS011;15177;50.844;4.412;2023-11-19T13:08:54;36.10;;;6.13;;
27796;SDS011;15177;50.844;4.412;2023-11-19T13:11:34;30.30;;;5.65;;
27796;SDS011;15177;50.844;4.412;2023-11-19T13:14:06;28.30;;;4.72;;
27796;SDS011;15177;50.844;4.412;2023-11-19T13:16:35;31.80;;;6.40;;
27796;SDS011;15177;50.844;4.412;2023-11-19T13:19:03;38.60;;;5.37;;
27796;SDS011;15177;50.844;4.412;2023-11-19T13:21:31;40.33;;;5.88;;
27796;SDS011;15177;50.844;4.412;2023-11-19T13:24:00;38.17;;;5.73;;
27796;SDS011;15177;50.844;4.412;2023-11-19T13:26:30;30.25;;;5.05;;
27796;SDS011;15177;50.844;4.412;2023-11-19T13:28:56;27.23;;;5.23;;
27796;SDS011;15177;50.844;4.412;2023-11-19T13:31:25;31.03;;;5.47;;
27796;SDS011;15177;50.844;4.412;2023-11-19T13:33:55;26.35;;;5.88;;
27796;SDS011;15177;50.844;4.412;2023-11-19T13:36:24;33.75;;;5.82;;
27796;SDS011;15177;50.844;4.412;2023-11-19T13:38:52;32.58;;;5.28;;
27796;SDS011;15177;50.844;4.412;2023-11-19T13:41:25;31.50;;;5.20;;
27796;SDS011;15177;50.844;4.412;2023-11-19T13:43:50;37.17;;;6.35;;
27796;SDS011;15177;50.844;4.412;2023-11-19T13:46:16;29.07;;;5.67;;
27796;SDS011;15177;50.844;4.412;2023-11-19T13:48:45;31.00;;;7.37;;
27796;SDS011;15177;50.844;4.412;2023-11-19T13:51:10;30.40;;;6.10;;
27796;SDS011;15177;50.844;4.412;2023-11-19T13:53:36;34.85;;;5.72;;
27796;SDS011;15177;50.844;4.412;2023-11-19T13:56:04;25.90;;;5.77;;
27796;SDS011;15177;50.844;4.412;2023-11-19T13:58:34;30.00;;;5.43;;
27796;SDS011;15177;50.844;4.412;2023-11-19T14:01:00;36.53;;;5.73;;
27796;SDS011;15177;50.844;4.412;2023-11-19T14:03:26;42.00;;;6.00;;
27796;SDS011;15177;50.844;4.412;2023-11-19T14:05:52;40.67;;;5.90;;
27796;SDS011;15177;50.844;4.412;2023-11-19T14:08:20;32.35;;;5.75;;
27796;SDS011;15177;50.844;4.412;2023-11-19T14:10:48;33.03;;;6.15;;
27796;SDS011;15177;50.844;4.412;2023-11-19T14:13:13;32.20;;;5.77;;
27796;SDS011;15177;50.844;4.412;2023-11-19T14:15:40;39.30;;;6.73;;
27796;SDS011;15177;50.844;4.412;2023-11-19T14:18:10;28.30;;;5.70;;
27796;SDS011;15177;50.844;4.412;2023-11-19T14:20:36;38.77;;;7.67;;
27796;SDS011;15177;50.844;4.412;2023-11-19T14:23:03;40.73;;;5.60;;
27796;SDS011;15177;50.844;4.412;2023-11-19T14:25:31;23.57;;;4.70;;
27796;SDS011;15177;50.844;4.412;2023-11-19T14:28:01;32.93;;;5.80;;
27796;SDS011;15177;50.844;4.412;2023-11-19T14:30:27;26.90;;;5.50;;
27796;SDS011;15177;50.844;4.412;2023-11-19T14:32:55;36.97;;;7.17;;
27796;SDS011;15177;50.844;4.412;2023-11-19T14:35:21;36.80;;;6.17;;
27796;SDS011;15177;50.844;4.412;2023-11-19T14:37:49;43.20;;;7.47;;
27796;SDS011;15177;50.844;4.412;2023-11-19T14:40:15;28.30;;;6.33;;
27796;SDS011;15177;50.844;4.412;2023-11-19T14:42:41;28.10;;;6.30;;
27796;SDS011;15177;50.844;4.412;2023-11-19T14:45:08;27.20;;;5.77;;
27796;SDS011;15177;50.844;4.412;2023-11-19T14:47:36;34.43;;;6.20;;
27796;SDS011;15177;50.844;4.412;2023-11-19T14:50:02;34.23;;;6.00;;
27796;SDS011;15177;50.844;4.412;2023-11-19T14:52:28;32.47;;;6.37;;
27796;SDS011;15177;50.844;4.412;2023-11-19T14:54:56;36.67;;;5.67;;
27796;SDS011;15177;50.844;4.412;2023-11-19T14:57:24;42.07;;;6.70;;
27796;SDS011;15177;50.844;4.412;2023-11-19T14:59:52;32.20;;;5.20;;
27796;SDS011;15177;50.844;4.412;2023-11-19T15:02:20;27.83;;;5.43;;
27796;SDS011;15177;50.844;4.412;2023-11-19T15:04:47;41.77;;;5.87;;
27796;SDS011;15177;50.844;4.412;2023-11-19T15:07:13;36.10;;;6.60;;
27796;SDS011;15177;50.844;4.412;2023-11-19T15:09:39;34.20;;;5.93;;